Дата Пункты Температура Давл., мм. Влажн., % Ветер Погодные явления
Воздуха Воды Направл. Скорость
08.07.19 12:00 Одесса 24.0 20.0 750 63 Пн-З 1 12 ГОДИН
08.07.19 09:00 Одесса 26.0 20.0 749 68 З 1 09 ГОДИН
08.07.19 06:00 Одесса 22.0 19.0 749 85 Пд-З 2 06 ГОДИН
08.07.19 03:00 Одесса 22.0 19.0 750 82 Пд-З 4 03 ГОДИНИ
07.07.19 09:00 Одесса 24.0 19.0 751 81 Пд-З 4 21 ГОДИНУ
07.07.19 06:00 Одесса 25.0 20.0 752 78 Пд 3 18 ГОДИН
07.07.19 03:00 Одесса 26.0 20.0 753 64 Пд 5 15 ГОДИН
07.07.19 12:00 Одесса 25.0 20.0 755 71 Пд 3 12 ГОДИН
07.07.19 09:00 Одесса 24.0 20.0 755 59 Пд 2 09 ГОДИН
07.07.19 06:00 Одесса 18.0 19.0 755 68 З 1 06 ГОДИН
07.07.19 03:00 Одесса 18.0 19.0 756 66 З 2 03 ГОДИНИ
06.07.19 09:00 Одесса 24.0 20.0 755 43 Пн-З 1 21 ГОДИНУ
06.07.19 06:00 Одесса 25.0 20.0 755 48 Пд-З 1 18 ГОДИН
06.07.19 03:00 Одесса 28.0 20.0 755 41 Пн-З 2 15 ГОДИН
06.07.19 12:00 Одесса 28.0 20.0 755 39 Пн 2 12 ГОДИН
06.07.19 09:00 Одесса 22.0 20.0 754 62 Пн 1 09 ГОДИН
06.07.19 06:00 Одесса 20.0 20.0 754 82 Пн 0 06 ГОДИН
06.07.19 03:00 Одесса 22.0 20.0 754 65 Пд-З 3 03 ГОДИНИ
05.07.19 09:00 Одесса 24.0 19.0 755 57 Пд-З 2 21 ГОДИНУ
05.07.19 06:00 Одесса 25.0 18.0 755 55 Пд-З 4 18 ГОДИН
Количество строк
1 2 3 4 5 6 7 8 9 10
Page 5 of 511